Time;durP1;ratioP1;P1;durP2;ratioP2;P2;SDS_P1;SDS_P2;PMS_P1;PMS_P2;Temp;Humidity;BMP_temperature;BMP_pressure;BME280_temperature;BME280_humidity;BME280_pressure;Samples;Min_cycle;Max_cycle;Signal;HPM_P1;HPM_P2
2022/05/05 00:01:32;;;;;;;14.52;6.68;;;6.80;99.90;;;;;;5034860;28;20378;-70
2022/05/05 00:03:58;;;;;;;12.32;6.22;;;6.70;99.90;;;;;;5034910;28;20056;-70
2022/05/05 00:06:24;;;;;;;13.75;6.32;;;6.80;99.90;;;;;;5038090;28;20068;-72
2022/05/05 00:08:49;;;;;;;13.38;5.97;;;6.80;99.90;;;;;;5038249;28;20045;-70
2022/05/05 00:16:43;;;;;;;11.77;7.38;;;6.70;99.90;;;;;;5021085;28;20454;-70
2022/05/05 00:19:09;;;;;;;12.73;6.63;;;6.70;99.90;;;;;;5038022;28;20073;-70
2022/05/05 00:21:34;;;;;;;11.35;6.47;;;6.70;99.90;;;;;;5038100;28;20468;-71
2022/05/05 00:24:00;;;;;;;15.27;7.15;;;6.70;99.90;;;;;;5037691;28;20382;-70
2022/05/05 00:26:26;;;;;;;16.05;6.65;;;6.90;99.90;;;;;;5037732;28;20132;-70
2022/05/05 00:28:51;;;;;;;14.20;6.53;;;6.70;99.90;;;;;;5038282;28;20086;-71
2022/05/05 00:31:17;;;;;;;17.92;7.30;;;6.70;99.90;;;;;;5037730;28;20057;-70
2022/05/05 00:33:42;;;;;;;12.52;6.78;;;6.70;99.90;;;;;;5020089;28;20057;-71
2022/05/05 00:36:08;;;;;;;12.63;6.68;;;6.70;99.90;;;;;;5020445;28;20361;-70
2022/05/05 00:38:34;;;;;;;15.07;7.20;;;6.70;99.90;;;;;;5037517;28;20041;-71
2022/05/05 00:40:59;;;;;;;16.98;7.20;;;6.70;99.90;;;;;;5037812;28;20413;-71
2022/05/05 00:43:25;;;;;;;18.25;7.07;;;6.70;99.90;;;;;;5037495;28;20053;-70
2022/05/05 00:45:50;;;;;;;13.70;7.13;;;6.70;99.90;;;;;;5037180;28;20085;-70
2022/05/05 00:48:17;;;;;;;16.42;7.53;;;6.60;99.90;;;;;;5037421;28;20037;-70
2022/05/05 00:50:42;;;;;;;12.00;6.65;;;6.70;99.90;;;;;;5037537;28;20073;-71
2022/05/05 00:53:08;;;;;;;13.98;6.85;;;6.60;99.90;;;;;;5037026;28;20087;-70
2022/05/05 00:55:37;;;;;;;18.63;6.95;;;6.60;99.90;;;;;;5037306;28;20495;-71
2022/05/05 00:58:04;;;;;;;13.80;6.95;;;6.60;99.90;;;;;;5036799;28;20076;-70
2022/05/05 01:00:31;;;;;;;15.88;7.25;;;6.60;99.90;;;;;;5033673;28;20152;-70
2022/05/05 01:02:59;;;;;;;12.02;6.88;;;6.60;99.90;;;;;;5036893;28;20041;-70
2022/05/05 01:05:27;;;;;;;10.70;6.82;;;6.60;99.90;;;;;;5037172;28;20038;-71
2022/05/05 01:07:53;;;;;;;12.73;6.55;;;6.60;99.90;;;;;;5037005;28;20454;-71
2022/05/05 01:10:19;;;;;;;13.95;7.55;;;6.60;99.90;;;;;;5019519;28;20050;-70
2022/05/05 01:12:45;;;;;;;13.45;7.18;;;6.70;99.90;;;;;;5036815;28;20060;-71
2022/05/05 01:15:11;;;;;;;17.40;8.27;;;6.70;99.90;;;;;;5019887;28;20084;-70
2022/05/05 01:17:37;;;;;;;13.43;6.75;;;6.60;99.90;;;;;;5036542;28;20449;-71
2022/05/05 01:20:16;;;;;;;13.50;8.10;;;6.60;99.90;;;;;;5037054;28;20049;-71
2022/05/05 01:22:41;;;;;;;13.93;7.55;;;6.70;99.90;;;;;;5036513;28;20052;-70
2022/05/05 01:30:36;;;;;;;11.07;7.10;;;6.70;99.90;;;;;;5036747;28;20049;-70
2022/05/05 01:33:13;;;;;;;12.57;7.15;;;6.70;99.90;;;;;;5036469;28;20053;-70
2022/05/05 01:35:39;;;;;;;12.10;7.35;;;6.70;99.90;;;;;;5018678;28;20056;-70
2022/05/05 01:38:07;;;;;;;14.90;7.75;;;6.70;99.90;;;;;;5036658;28;20104;-70
2022/05/05 01:40:32;;;;;;;14.77;6.75;;;6.70;99.90;;;;;;5036850;28;20041;-70
2022/05/05 01:42:58;;;;;;;12.98;6.75;;;6.80;99.90;;;;;;5035991;28;20045;-70
2022/05/05 01:45:24;;;;;;;19.45;7.25;;;6.80;99.90;;;;;;5018884;28;20068;-70
2022/05/05 01:47:50;;;;;;;12.55;7.03;;;6.80;99.90;;;;;;5036041;28;20053;-70
2022/05/05 01:50:15;;;;;;;12.70;6.43;;;6.80;99.90;;;;;;5035985;28;20045;-70
2022/05/05 01:52:41;;;;;;;18.00;7.93;;;6.80;99.90;;;;;;5018715;28;20115;-71
2022/05/05 01:55:07;;;;;;;13.35;7.30;;;6.80;99.90;;;;;;5036053;28;20046;-70
2022/05/05 01:57:32;;;;;;;13.07;6.43;;;6.80;99.90;;;;;;5035804;28;20038;-71
2022/05/05 02:00:00;;;;;;;14.45;7.18;;;6.80;99.90;;;;;;5018492;28;20077;-70
2022/05/05 02:02:26;;;;;;;13.82;7.13;;;6.70;99.90;;;;;;5018561;28;20457;-70
2022/05/05 02:04:52;;;;;;;19.10;7.05;;;6.70;99.90;;;;;;5035873;28;20073;-70
2022/05/05 02:07:18;;;;;;;14.88;7.18;;;6.70;99.90;;;;;;5018399;28;20183;-70
2022/05/05 02:09:43;;;;;;;13.05;6.20;;;6.70;99.90;;;;;;5018383;28;20370;-69
2022/05/05 02:12:09;;;;;;;10.32;6.90;;;6.70;99.90;;;;;;5035967;28;20053;-70
2022/05/05 02:14:34;;;;;;;13.77;7.05;;;6.60;99.90;;;;;;5035784;28;20048;-70
2022/05/05 02:17:00;;;;;;;12.02;6.57;;;6.60;99.90;;;;;;5035425;28;20497;-70
2022/05/05 02:19:26;;;;;;;18.48;6.50;;;6.60;99.90;;;;;;5035440;28;20496;-70
2022/05/05 02:21:51;;;;;;;12.35;6.55;;;6.60;99.90;;;;;;5035590;28;20037;-70
2022/05/05 02:24:17;;;;;;;14.02;6.65;;;6.60;99.90;;;;;;5035682;28;20052;-70
2022/05/05 02:26:43;;;;;;;10.88;7.03;;;6.50;99.90;;;;;;5035027;28;20045;-70
2022/05/05 02:29:08;;;;;;;11.85;6.82;;;6.50;99.90;;;;;;5035375;28;20081;-71
2022/05/05 02:31:34;;;;;;;14.00;7.88;;;6.50;99.90;;;;;;5017999;28;20059;-70
2022/05/05 02:33:59;;;;;;;15.48;7.65;;;6.40;99.90;;;;;;5035388;28;20060;-71
2022/05/05 02:39:09;;;;;;;15.48;8.07;;;6.40;99.90;;;;;;5036154;28;20130;-70
2022/05/05 02:41:35;;;;;;;14.32;7.88;;;6.40;99.90;;;;;;5035320;28;20057;-71
2022/05/05 02:44:00;;;;;;;13.75;7.95;;;6.40;99.90;;;;;;5020155;28;20127;-71
2022/05/05 02:46:26;;;;;;;15.85;7.82;;;6.40;99.90;;;;;;5035216;28;20056;-71
2022/05/05 02:48:51;;;;;;;15.15;8.00;;;6.40;99.90;;;;;;5018301;28;20425;-70
2022/05/05 02:51:17;;;;;;;14.30;7.70;;;6.40;99.90;;;;;;5018054;28;20038;-71
2022/05/05 02:56:27;;;;;;;15.18;8.18;;;6.30;99.90;;;;;;5034975;28;20418;-70
2022/05/05 02:58:53;;;;;;;13.75;8.65;;;6.30;99.90;;;;;;4984108;28;20049;-70
2022/05/05 03:01:19;;;;;;;14.05;8.10;;;6.30;99.90;;;;;;5034963;28;20038;-70
2022/05/05 03:03:44;;;;;;;20.42;8.35;;;6.30;99.90;;;;;;5035287;28;20041;-70
2022/05/05 03:06:10;;;;;;;17.98;8.40;;;6.40;99.90;;;;;;5035132;28;20140;-70
2022/05/05 03:08:36;;;;;;;14.80;9.07;;;6.50;99.90;;;;;;5034987;28;20056;-70
2022/05/05 03:11:01;;;;;;;19.50;9.40;;;6.40;99.90;;;;;;5034735;28;20057;-70
2022/05/05 03:13:27;;;;;;;17.02;9.43;;;6.60;99.90;;;;;;5035278;28;20124;-71
2022/05/05 03:15:52;;;;;;;17.70;9.60;;;6.40;99.90;;;;;;5018064;28;20054;-70
2022/05/05 03:18:18;;;;;;;14.55;9.18;;;6.40;99.90;;;;;;5034827;28;20111;-69
2022/05/05 03:20:43;;;;;;;20.75;9.00;;;6.40;99.90;;;;;;5034919;28;20056;-71
2022/05/05 03:23:09;;;;;;;17.45;9.38;;;6.50;99.90;;;;;;5034874;28;20045;-71
2022/05/05 03:25:34;;;;;;;16.27;9.48;;;6.50;99.90;;;;;;5035537;28;20049;-70
2022/05/05 03:28:00;;;;;;;20.20;9.35;;;6.50;99.90;;;;;;5034870;28;20046;-71
2022/05/05 03:30:26;;;;;;;16.90;10.30;;;6.50;99.90;;;;;;5034975;28;20091;-70
2022/05/05 03:32:51;;;;;;;14.98;10.07;;;6.60;99.90;;;;;;5034571;28;20501;-71
2022/05/05 03:35:17;;;;;;;20.17;9.25;;;6.60;99.90;;;;;;5034808;28;20049;-70
2022/05/05 03:37:42;;;;;;;20.35;9.60;;;6.60;99.90;;;;;;5031716;28;20049;-71
2022/05/05 03:40:08;;;;;;;14.75;9.30;;;6.60;99.90;;;;;;5037830;28;20056;-69
2022/05/05 03:42:34;;;;;;;14.88;9.82;;;6.60;99.90;;;;;;5024385;28;20059;-69
2022/05/05 03:44:59;;;;;;;15.70;9.15;;;6.60;99.90;;;;;;5038892;28;20096;-70
2022/05/05 03:47:25;;;;;;;18.02;9.50;;;6.60;99.90;;;;;;5038482;28;20350;-71
2022/05/05 03:49:50;;;;;;;14.32;9.13;;;6.60;99.90;;;;;;5038528;28;20202;-70
2022/05/05 03:52:16;;;;;;;16.77;9.88;;;6.60;99.90;;;;;;5038540;28;20049;-70
2022/05/05 03:54:42;;;;;;;19.83;9.73;;;6.60;99.90;;;;;;5038484;28;20033;-70
2022/05/05 03:57:08;;;;;;;18.65;9.75;;;6.60;99.90;;;;;;5038033;28;20103;-71
2022/05/05 03:59:34;;;;;;;16.48;10.05;;;6.60;99.90;;;;;;5038164;28;20085;-70
2022/05/05 04:01:59;;;;;;;13.90;9.70;;;6.60;99.90;;;;;;5038148;28;20068;-70
2022/05/05 04:04:25;;;;;;;18.38;10.07;;;6.60;99.90;;;;;;5038298;28;20059;-70
2022/05/05 04:06:51;;;;;;;14.60;10.63;;;6.60;99.90;;;;;;5038304;28;20073;-70
2022/05/05 04:09:16;;;;;;;13.00;8.90;;;6.70;99.90;;;;;;5038142;28;20077;-70
2022/05/05 04:11:42;;;;;;;20.13;10.38;;;6.70;99.90;;;;;;5037831;28;20136;-70
2022/05/05 04:14:07;;;;;;;16.40;9.73;;;6.70;99.90;;;;;;5037022;28;20060;-70
2022/05/05 04:16:33;;;;;;;18.95;10.25;;;6.70;99.90;;;;;;5037768;28;20084;-70
2022/05/05 04:19:01;;;;;;;19.90;10.90;;;6.70;99.90;;;;;;5037985;28;20037;-69
2022/05/05 04:21:26;;;;;;;16.33;10.98;;;6.70;99.90;;;;;;5037633;28;20065;-71
2022/05/05 04:23:52;;;;;;;15.98;10.70;;;6.70;99.90;;;;;;5037964;28;20049;-71
2022/05/05 04:26:18;;;;;;;16.33;9.82;;;6.80;99.90;;;;;;5037799;28;20509;-70
2022/05/05 04:28:47;;;;;;;18.45;10.32;;;6.80;99.90;;;;;;5037663;28;20083;-70
2022/05/05 04:31:15;;;;;;;17.85;10.50;;;6.90;99.90;;;;;;5037699;28;20393;-71
2022/05/05 04:33:41;;;;;;;19.25;11.43;;;6.90;99.90;;;;;;5037731;28;20049;-71
2022/05/05 04:36:07;;;;;;;18.27;11.52;;;7.00;99.90;;;;;;5036813;28;20084;-71
2022/05/05 04:38:33;;;;;;;14.88;10.52;;;7.00;99.90;;;;;;5037775;28;20126;-71
2022/05/05 04:40:59;;;;;;;18.85;10.88;;;7.00;99.90;;;;;;5037437;28;20454;-70
2022/05/05 04:43:24;;;;;;;17.60;10.93;;;7.10;99.90;;;;;;5039118;28;20374;-70
2022/05/05 04:45:50;;;;;;;18.27;10.82;;;7.10;99.90;;;;;;5037438;28;20061;-71
2022/05/05 04:48:16;;;;;;;15.25;10.63;;;7.20;99.90;;;;;;5037364;28;20484;-71
2022/05/05 04:50:41;;;;;;;14.45;9.82;;;7.20;99.90;;;;;;5036769;28;20048;-71
2022/05/05 04:53:07;;;;;;;14.07;10.07;;;7.20;99.90;;;;;;5037476;28;20048;-71
2022/05/05 04:55:32;;;;;;;17.27;10.85;;;7.30;99.90;;;;;;5037324;28;20096;-71
2022/05/05 04:57:58;;;;;;;17.13;10.40;;;7.30;99.90;;;;;;5037014;28;20464;-71
2022/05/05 05:00:23;;;;;;;16.58;9.80;;;7.30;99.90;;;;;;5037050;28;20076;-71
2022/05/05 05:02:49;;;;;;;21.20;9.77;;;7.30;99.90;;;;;;5037110;28;20049;-71
2022/05/05 05:05:15;;;;;;;23.55;11.20;;;7.40;99.90;;;;;;5037376;28;20049;-70
2022/05/05 05:07:40;;;;;;;22.23;10.05;;;7.40;99.90;;;;;;5036873;28;20068;-71
2022/05/05 05:10:06;;;;;;;13.80;9.82;;;7.50;99.90;;;;;;5036802;28;20136;-71
2022/05/05 05:12:33;;;;;;;14.57;9.70;;;7.60;99.90;;;;;;5036901;28;20049;-71
2022/05/05 05:14:59;;;;;;;16.33;9.63;;;7.60;99.90;;;;;;5036845;28;20154;-70
2022/05/05 05:17:25;;;;;;;16.05;9.98;;;7.70;99.90;;;;;;5037211;28;20469;-71
2022/05/05 05:19:50;;;;;;;14.55;9.63;;;7.70;99.90;;;;;;5036820;28;20362;-71
2022/05/05 05:22:16;;;;;;;15.88;9.32;;;7.70;99.90;;;;;;5036688;28;20128;-71
2022/05/05 05:24:41;;;;;;;14.88;9.40;;;7.80;99.90;;;;;;5036904;28;20203;-70
2022/05/05 05:27:07;;;;;;;11.57;8.65;;;7.90;99.90;;;;;;5036803;28;20492;-70
2022/05/05 05:29:33;;;;;;;13.25;8.70;;;8.00;99.90;;;;;;5036608;28;20224;-71
2022/05/05 05:31:58;;;;;;;15.77;9.02;;;8.10;99.90;;;;;;5019103;28;20041;-70
2022/05/05 05:34:24;;;;;;;16.50;8.77;;;8.20;99.90;;;;;;5036189;28;20041;-70
2022/05/05 05:36:49;;;;;;;14.68;8.25;;;8.40;99.90;;;;;;5036529;28;20525;-71
2022/05/05 05:39:19;;;;;;;17.92;7.72;;;8.40;99.90;;;;;;5018703;28;20053;-70
2022/05/05 05:41:44;;;;;;;17.83;8.85;;;8.50;99.90;;;;;;5015568;28;20466;-71
2022/05/05 05:44:11;;;;;;;12.73;8.50;;;8.60;99.90;;;;;;5035535;28;20100;-71
2022/05/05 05:46:37;;;;;;;13.27;8.45;;;8.70;99.90;;;;;;5036186;28;20050;-71
2022/05/05 05:49:03;;;;;;;15.57;8.27;;;8.80;99.90;;;;;;5036375;28;20136;-72
2022/05/05 05:51:28;;;;;;;14.35;8.38;;;8.90;99.90;;;;;;5036194;28;20124;-71
2022/05/05 05:53:54;;;;;;;14.70;9.10;;;9.00;99.90;;;;;;5036802;28;20059;-71
2022/05/05 05:56:19;;;;;;;14.60;8.30;;;9.10;99.90;;;;;;5036371;28;20042;-71
2022/05/05 05:58:45;;;;;;;11.88;7.95;;;9.10;99.90;;;;;;5036221;28;20041;-70
2022/05/05 06:01:11;;;;;;;15.75;8.10;;;9.20;99.90;;;;;;5036078;28;20103;-70
2022/05/05 06:03:54;;;;;;;17.20;9.77;;;9.30;99.90;;;;;;5035200;28;20438;-70
2022/05/05 06:06:24;;;;;;;15.55;8.52;;;9.40;99.90;;;;;;5036690;28;20051;-70
2022/05/05 06:08:50;;;;;;;13.18;8.27;;;9.50;99.90;;;;;;5036250;28;20338;-70
2022/05/05 06:11:17;;;;;;;14.85;7.93;;;9.50;99.90;;;;;;5035584;28;20120;-70
2022/05/05 06:13:43;;;;;;;16.55;8.23;;;9.60;99.90;;;;;;5035814;28;20068;-70
2022/05/05 06:16:12;;;;;;;13.10;8.68;;;9.70;99.90;;;;;;5035762;28;20049;-71
2022/05/05 06:18:38;;;;;;;16.35;8.57;;;9.80;99.90;;;;;;5035819;28;20049;-71
2022/05/05 06:21:04;;;;;;;14.98;8.80;;;9.90;99.90;;;;;;5036053;28;20068;-71
2022/05/05 06:23:30;;;;;;;16.25;9.07;;;10.00;99.90;;;;;;5035436;28;20042;-70
2022/05/05 06:25:56;;;;;;;14.80;8.32;;;10.00;99.90;;;;;;5035356;28;20049;-70
2022/05/05 06:28:21;;;;;;;18.10;8.15;;;10.10;99.90;;;;;;5036139;28;20188;-70
2022/05/05 06:30:47;;;;;;;13.23;8.52;;;10.10;99.90;;;;;;5035548;28;20339;-71
2022/05/05 06:33:12;;;;;;;13.07;7.57;;;10.20;99.90;;;;;;5035443;28;20080;-71
2022/05/05 06:35:38;;;;;;;15.65;8.25;;;10.30;99.90;;;;;;5034887;28;20062;-70
2022/05/05 06:38:04;;;;;;;11.95;8.27;;;10.50;99.90;;;;;;5017537;28;20053;-71
2022/05/05 06:40:29;;;;;;;19.10;8.85;;;10.50;99.90;;;;;;5035510;28;20216;-71
2022/05/05 06:42:56;;;;;;;14.70;7.55;;;10.70;99.90;;;;;;5035767;28;20103;-71
2022/05/05 06:45:22;;;;;;;16.15;8.18;;;10.70;99.90;;;;;;5035891;28;20053;-70
2022/05/05 06:47:48;;;;;;;11.63;7.65;;;10.80;99.90;;;;;;5035240;28;20124;-70
2022/05/05 06:50:16;;;;;;;13.43;7.28;;;10.90;99.90;;;;;;5035357;28;20080;-70
2022/05/05 06:52:42;;;;;;;12.88;7.13;;;11.10;99.90;;;;;;5034970;28;20100;-71
2022/05/05 06:55:08;;;;;;;15.88;7.60;;;11.20;99.90;;;;;;5035278;28;20077;-71
2022/05/05 06:57:33;;;;;;;11.30;6.55;;;11.30;99.90;;;;;;5034838;28;20053;-71
2022/05/05 06:59:59;;;;;;;16.48;6.65;;;11.30;99.90;;;;;;5034795;28;20539;-71
2022/05/05 07:02:24;;;;;;;11.77;6.55;;;11.40;99.90;;;;;;5035706;28;20103;-71
2022/05/05 07:07:34;;;;;;;17.92;6.88;;;11.50;99.90;;;;;;5034705;28;20053;-72
2022/05/05 07:12:44;;;;;;;14.80;7.45;;;11.80;99.90;;;;;;5035088;28;20045;-72
2022/05/05 07:15:10;;;;;;;13.63;6.35;;;12.00;99.90;;;;;;5039127;28;20037;-71
2022/05/05 07:17:35;;;;;;;13.50;6.68;;;12.00;99.90;;;;;;5038856;28;20041;-71
2022/05/05 07:20:01;;;;;;;10.18;6.18;;;12.00;99.90;;;;;;5039177;28;20088;-71
2022/05/05 07:22:26;;;;;;;14.48;6.82;;;12.20;99.90;;;;;;5039081;28;20099;-71
2022/05/05 07:24:52;;;;;;;13.90;6.05;;;12.30;99.90;;;;;;5038813;28;20100;-72
2022/05/05 07:27:18;;;;;;;13.50;6.03;;;12.40;99.90;;;;;;5038977;28;20049;-71
2022/05/05 07:29:43;;;;;;;12.48;6.40;;;12.50;99.90;;;;;;5038751;28;20050;-72
2022/05/05 07:32:10;;;;;;;13.45;6.13;;;12.60;99.90;;;;;;5039181;28;20438;-71
2022/05/05 07:34:35;;;;;;;14.23;6.00;;;12.70;99.90;;;;;;5038697;28;20091;-72
2022/05/05 07:37:02;;;;;;;13.27;6.05;;;12.80;99.90;;;;;;5038538;28;20434;-71
2022/05/05 07:39:27;;;;;;;12.25;5.70;;;12.90;99.90;;;;;;5039089;28;20041;-72
2022/05/05 07:41:53;;;;;;;12.20;5.70;;;13.00;99.90;;;;;;5038784;28;20454;-71
2022/05/05 07:44:18;;;;;;;11.43;5.47;;;13.10;99.90;;;;;;5035099;28;20053;-71
2022/05/05 07:46:44;;;;;;;12.38;5.18;;;13.30;99.90;;;;;;5038643;28;20431;-72
2022/05/05 07:49:10;;;;;;;14.18;5.25;;;13.40;99.90;;;;;;5020857;28;20049;-72
2022/05/05 07:51:35;;;;;;;12.75;5.10;;;13.50;99.90;;;;;;5038249;28;20476;-71
2022/05/05 07:56:46;;;;;;;9.63;5.47;;;13.70;99.90;;;;;;5038385;28;20063;-72
2022/05/05 07:59:12;;;;;;;13.30;4.82;;;13.80;99.90;;;;;;5038067;28;20152;-72
2022/05/05 08:01:37;;;;;;;13.30;5.32;;;13.90;99.90;;;;;;5038193;28;20049;-71
2022/05/05 08:04:04;;;;;;;11.80;5.25;;;14.10;99.90;;;;;;5037813;28;20065;-72
2022/05/05 08:06:30;;;;;;;14.65;5.25;;;14.20;99.90;;;;;;5038269;28;20103;-71
2022/05/05 08:08:56;;;;;;;12.30;4.60;;;14.40;99.90;;;;;;5020289;28;20100;-72
2022/05/05 08:11:21;;;;;;;14.38;4.60;;;14.50;99.90;;;;;;5037900;28;20049;-72
2022/05/05 08:13:47;;;;;;;9.05;4.40;;;14.70;99.90;;;;;;5037877;28;20045;-72
2022/05/05 08:16:12;;;;;;;15.07;4.78;;;14.80;99.90;;;;;;5038000;28;20045;-72
2022/05/05 08:18:38;;;;;;;11.25;4.57;;;15.00;99.90;;;;;;5003266;28;20133;-71
2022/05/05 08:21:09;;;;;;;12.20;4.80;;;15.10;99.90;;;;;;5020303;28;20457;-72
2022/05/05 08:23:34;;;;;;;9.00;4.20;;;15.30;99.90;;;;;;5037778;28;20060;-72
2022/05/05 08:28:44;;;;;;;8.75;3.55;;;15.50;99.90;;;;;;5037638;28;20191;-71
2022/05/05 08:31:10;;;;;;;7.70;3.65;;;15.80;99.90;;;;;;5038312;28;20069;-72
2022/05/05 08:33:36;;;;;;;9.88;3.75;;;16.10;99.90;;;;;;5037831;28;20050;-72
2022/05/05 08:36:02;;;;;;;12.15;4.00;;;16.30;99.90;;;;;;5037757;28;20398;-72
2022/05/05 08:38:28;;;;;;;6.65;3.58;;;16.40;99.90;;;;;;5037782;28;20354;-72
2022/05/05 08:40:54;;;;;;;11.95;4.22;;;16.60;99.90;;;;;;5037837;28;20037;-72
2022/05/05 08:43:19;;;;;;;7.55;4.13;;;16.80;99.90;;;;;;5037496;28;20454;-72
2022/05/05 08:45:45;;;;;;;10.73;3.92;;;16.30;99.90;;;;;;5037840;28;20055;-72
2022/05/05 08:48:12;;;;;;;10.82;3.90;;;16.30;99.90;;;;;;5037241;28;20064;-72
2022/05/05 08:50:44;;;;;;;7.97;3.65;;;16.60;99.90;;;;;;5037608;28;20041;-72
2022/05/05 08:53:17;;;;;;;9.67;3.53;;;16.70;99.90;;;;;;5019559;28;20045;-72
2022/05/05 08:55:46;;;;;;;10.27;3.70;;;17.00;99.90;;;;;;5037164;28;20102;-72
2022/05/05 08:58:12;;;;;;;9.32;4.35;;;16.90;99.90;;;;;;5019907;28;20351;-72
2022/05/05 09:00:38;;;;;;;12.27;3.90;;;17.00;99.90;;;;;;5037475;28;20048;-72
2022/05/05 09:03:08;;;;;;;12.05;4.05;;;17.10;99.90;;;;;;5037349;28;20057;-72
2022/05/05 09:05:43;;;;;;;8.95;3.70;;;17.40;99.90;;;;;;5037806;28;20053;-72
2022/05/05 09:08:13;;;;;;;9.93;3.58;;;17.60;99.90;;;;;;5037528;28;20362;-72
2022/05/05 09:10:45;;;;;;;9.30;3.50;;;17.60;99.80;;;;;;5036849;28;20049;-72
2022/05/05 09:13:11;;;;;;;9.20;3.67;;;17.80;99.90;;;;;;5037640;28;20050;-71
2022/05/05 09:15:40;;;;;;;12.13;4.28;;;18.20;99.90;;;;;;5037034;28;20515;-73
2022/05/05 09:18:11;;;;;;;11.00;3.50;;;18.40;99.80;;;;;;5036838;28;20458;-72
2022/05/05 09:20:37;;;;;;;7.32;3.05;;;18.20;98.20;;;;;;5036477;28;20049;-72
2022/05/05 09:23:02;;;;;;;8.55;3.78;;;18.20;99.30;;;;;;5036741;28;20140;-71
2022/05/05 09:25:45;;;;;;;8.20;4.55;;;18.60;99.90;;;;;;5036174;28;20470;-72
2022/05/05 09:28:17;;;;;;;9.20;4.50;;;18.80;99.00;;;;;;5036990;28;20037;-72
2022/05/05 09:30:47;;;;;;;14.02;4.97;;;19.00;97.70;;;;;;5036119;28;20089;-72
2022/05/05 09:33:38;;;;;;;10.13;4.68;;;19.00;97.50;;;;;;5036616;28;20052;-72
2022/05/05 09:36:25;;;;;;;10.30;4.00;;;19.00;96.50;;;;;;5036144;28;20187;-72
2022/05/05 09:38:56;;;;;;;8.80;4.80;;;19.00;98.10;;;;;;5018366;28;20069;-72
2022/05/05 09:41:25;;;;;;;12.73;5.00;;;19.20;97.10;;;;;;5036170;28;20037;-72
2022/05/05 09:43:55;;;;;;;13.93;4.82;;;19.30;96.80;;;;;;5036394;28;20049;-72
2022/05/05 09:46:26;;;;;;;9.52;4.63;;;19.50;97.20;;;;;;5035843;28;20064;-72
2022/05/05 09:49:11;;;;;;;11.80;5.30;;;19.80;97.50;;;;;;5019317;28;20139;-72
2022/05/05 09:57:44;;;;;;;8.38;4.93;;;19.90;96.10;;;;;;5036037;28;20045;-72
2022/05/05 10:05:46;;;;;;;8.63;4.80;;;20.00;94.50;;;;;;5036124;28;20057;-73
2022/05/05 10:08:16;;;;;;;11.15;4.43;;;20.10;94.10;;;;;;5002042;28;20132;-72
2022/05/05 10:10:42;;;;;;;11.13;5.72;;;19.90;94.90;;;;;;5036127;28;20046;-72
2022/05/05 10:13:10;;;;;;;8.75;4.82;;;19.40;94.10;;;;;;5018254;28;20080;-71
2022/05/05 10:15:36;;;;;;;13.40;5.93;;;19.30;95.40;;;;;;5035986;28;20108;-71
2022/05/05 10:18:03;;;;;;;10.85;5.40;;;19.50;95.90;;;;;;5035427;28;20099;-71
2022/05/05 10:20:30;;;;;;;10.52;5.60;;;19.50;95.00;;;;;;5035850;28;20049;-72
2022/05/05 10:23:05;;;;;;;11.10;5.20;;;19.20;94.70;;;;;;5036131;28;20100;-72
2022/05/05 10:25:33;;;;;;;8.77;5.22;;;19.30;94.90;;;;;;5035982;28;20041;-72
2022/05/05 10:27:59;;;;;;;11.90;4.85;;;19.30;94.90;;;;;;5035416;28;20055;-72
2022/05/05 10:30:35;;;;;;;9.73;4.95;;;19.50;95.20;;;;;;5035864;28;20076;-72
2022/05/05 10:33:06;;;;;;;8.52;4.85;;;19.90;94.80;;;;;;5035536;28;20420;-72
2022/05/05 10:35:48;;;;;;;8.82;4.97;;;20.20;95.10;;;;;;5036141;28;20046;-72
2022/05/05 10:38:42;;;;;;;7.20;4.25;;;20.40;94.80;;;;;;5035381;28;20421;-72
2022/05/05 10:41:29;;;;;;;7.93;4.70;;;20.80;94.60;;;;;;5035349;28;20470;-72
2022/05/05 10:44:17;;;;;;;6.47;3.92;;;20.70;94.70;;;;;;5035096;28;20057;-71
2022/05/05 10:47:03;;;;;;;11.05;4.22;;;20.80;93.50;;;;;;5035277;28;20046;-72
2022/05/05 10:52:12;;;;;;;10.52;4.40;;;21.30;93.70;;;;;;5034990;28;20199;-72
2022/05/05 10:54:45;;;;;;;9.57;4.05;;;21.40;92.70;;;;;;5034933;28;20049;-72
2022/05/05 10:57:26;;;;;;;9.90;4.18;;;21.40;93.30;;;;;;5035458;28;20057;-72
2022/05/05 11:00:07;;;;;;;9.23;4.72;;;21.40;91.50;;;;;;5034909;28;20053;-71
2022/05/05 11:02:33;;;;;;;8.90;4.88;;;21.30;92.00;;;;;;5035276;28;20099;-72
2022/05/05 11:05:27;;;;;;;10.27;4.25;;;21.20;92.40;;;;;;5017631;28;20403;-72
2022/05/05 11:07:54;;;;;;;9.25;4.32;;;21.00;92.20;;;;;;5035087;28;20045;-72
2022/05/05 11:10:41;;;;;;;8.55;4.55;;;21.20;92.40;;;;;;5035275;28;20053;-72
2022/05/05 11:13:36;;;;;;;8.32;4.68;;;21.00;89.90;;;;;;5034768;28;20045;-73
2022/05/05 11:22:17;;;;;;;7.95;4.22;;;21.70;90.40;;;;;;5034902;28;20049;-72
2022/05/05 11:24:46;;;;;;;6.55;4.45;;;21.70;90.50;;;;;;5017744;28;20041;-72
2022/05/05 11:27:13;;;;;;;6.78;4.13;;;21.40;86.70;;;;;;5017469;28;20075;-73
2022/05/05 11:29:39;;;;;;;7.90;4.57;;;21.10;88.80;;;;;;5034991;28;20048;-71
2022/05/05 11:32:05;;;;;;;7.90;4.18;;;21.10;86.90;;;;;;5034670;28;20048;-72
2022/05/05 11:34:33;;;;;;;6.78;4.00;;;21.00;88.90;;;;;;5035227;28;20136;-73
2022/05/05 11:37:02;;;;;;;10.07;5.55;;;21.20;90.40;;;;;;5034887;28;20092;-72
2022/05/05 11:39:36;;;;;;;8.15;4.97;;;21.30;90.10;;;;;;5017479;28;20056;-72
2022/05/05 11:42:10;;;;;;;9.15;4.93;;;21.30;88.00;;;;;;5034597;28;20476;-71
2022/05/05 11:44:37;;;;;;;7.88;5.28;;;21.00;87.60;;;;;;5032038;28;20400;-71
2022/05/05 11:47:14;;;;;;;9.20;5.30;;;20.90;88.20;;;;;;5034264;28;20466;-71
2022/05/05 11:49:43;;;;;;;8.05;5.40;;;21.00;89.00;;;;;;5017736;28;20099;-72
2022/05/05 11:52:10;;;;;;;10.82;5.40;;;20.80;88.10;;;;;;5018396;28;20041;-72
2022/05/05 11:54:36;;;;;;;8.70;5.53;;;21.20;90.20;;;;;;5034825;28;20064;-73
2022/05/05 11:57:02;;;;;;;9.40;5.95;;;21.00;90.60;;;;;;5034277;28;20072;-72
2022/05/05 12:02:21;;;;;;;7.45;5.47;;;21.00;90.20;;;;;;5038407;28;20081;-72
2022/05/05 12:04:56;;;;;;;9.05;5.18;;;21.00;88.40;;;;;;5038364;28;20508;-72
2022/05/05 12:07:23;;;;;;;9.77;6.28;;;20.90;89.90;;;;;;5037947;28;20229;-72
2022/05/05 12:09:58;;;;;;;10.43;6.50;;;20.40;90.10;;;;;;5038079;28;20038;-72
2022/05/05 12:12:26;;;;;;;14.70;6.40;;;20.30;89.00;;;;;;5038124;28;20045;-72
2022/05/05 12:15:02;;;;;;;10.18;5.97;;;20.30;90.30;;;;;;5020719;28;20042;-71
2022/05/05 12:17:58;;;;;;;9.80;6.60;;;20.50;90.80;;;;;;5017642;28;20470;-72
2022/05/05 12:20:24;;;;;;;11.50;6.95;;;20.70;89.50;;;;;;5038289;28;20124;-72
2022/05/05 12:22:54;;;;;;;10.35;6.05;;;20.80;90.10;;;;;;5017626;28;20077;-71
2022/05/05 12:25:21;;;;;;;19.05;7.75;;;20.60;90.20;;;;;;5038117;28;20068;-72
2022/05/05 12:27:57;;;;;;;11.13;6.35;;;20.70;89.70;;;;;;5038021;28;20056;-72
2022/05/05 12:30:36;;;;;;;10.10;6.68;;;20.90;88.00;;;;;;5020751;28;20136;-72
2022/05/05 12:33:03;;;;;;;12.25;7.10;;;20.90;87.30;;;;;;5037220;28;20060;-72
2022/05/05 12:35:33;;;;;;;12.88;6.40;;;20.50;88.50;;;;;;5037701;28;20045;-72
2022/05/05 12:37:59;;;;;;;9.20;6.40;;;20.50;90.50;;;;;;5037762;28;20048;-71
2022/05/05 12:40:25;;;;;;;12.38;7.60;;;20.90;90.80;;;;;;5020402;28;20053;-71
2022/05/05 12:43:06;;;;;;;14.23;8.07;;;21.00;90.40;;;;;;5037887;28;20041;-72
2022/05/05 12:45:33;;;;;;;8.93;6.50;;;20.90;89.70;;;;;;5037545;28;20049;-72
2022/05/05 12:48:01;;;;;;;9.65;6.35;;;20.90;90.20;;;;;;5019721;28;20045;-71
2022/05/05 12:50:32;;;;;;;9.40;7.38;;;20.60;90.30;;;;;;5037598;28;20124;-72
2022/05/05 13:01:26;;;;;;;11.25;5.53;;;20.90;90.60;;;;;;5057299;28;20057;-72
2022/05/05 13:03:57;;;;;;;8.80;5.88;;;21.10;91.00;;;;;;5057496;28;20053;-72
2022/05/05 13:06:24;;;;;;;12.07;6.50;;;21.20;90.90;;;;;;5057052;28;20099;-73
2022/05/05 13:08:51;;;;;;;11.10;6.03;;;21.40;90.80;;;;;;5057205;28;20416;-72
2022/05/05 13:11:17;;;;;;;11.57;5.75;;;21.60;91.30;;;;;;5056558;28;20052;-72
2022/05/05 13:13:43;;;;;;;9.85;6.20;;;21.90;91.30;;;;;;5057676;28;20045;-72
2022/05/05 13:16:09;;;;;;;10.70;5.32;;;22.00;90.50;;;;;;5056582;28;20041;-72
2022/05/05 13:18:35;;;;;;;9.70;5.88;;;21.90;90.70;;;;;;5057099;28;20492;-72
2022/05/05 13:21:01;;;;;;;8.48;5.72;;;22.00;90.20;;;;;;5056713;28;20049;-72
2022/05/05 13:23:26;;;;;;;11.48;5.85;;;21.80;89.60;;;;;;5056946;28;20090;-73
2022/05/05 13:25:52;;;;;;;11.70;5.22;;;21.90;90.10;;;;;;5056896;28;20053;-72
2022/05/05 13:28:17;;;;;;;22.63;5.40;;;22.00;90.10;;;;;;5039390;28;20132;-73
2022/05/05 13:30:43;;;;;;;7.55;5.38;;;22.20;90.00;;;;;;5056777;28;20373;-72
2022/05/05 13:33:09;;;;;;;8.57;5.47;;;22.20;90.40;;;;;;5056995;28;20049;-73
2022/05/05 13:35:34;;;;;;;8.30;5.05;;;22.20;90.00;;;;;;5056197;28;20503;-73
2022/05/05 13:38:00;;;;;;;9.15;4.55;;;22.20;89.30;;;;;;5056397;28;20369;-73
2022/05/05 13:40:26;;;;;;;7.63;4.50;;;22.10;90.30;;;;;;5039136;28;20056;-73
2022/05/05 13:42:52;;;;;;;9.73;5.80;;;22.10;90.00;;;;;;5056624;28;20080;-72
2022/05/05 13:45:17;;;;;;;10.50;4.80;;;22.00;88.60;;;;;;5039047;28;20465;-73